Time;durP1;ratioP1;P1;durP2;ratioP2;P2;SDS_P1;SDS_P2;PMS_P1;PMS_P2;Temp;Humidity;BMP_temperature;BMP_pressure;BME280_temperature;BME280_humidity;BME280_pressure;Samples;Min_cycle;Max_cycle;Signal;HPM_P1;HPM_P2
2022/01/03 00:00:16;;;;;;;4.30;1.17;;;;;;;10.26;66.09;96606.25;2064819;28;20654;-61
2022/01/03 00:01:20;;;;;;;7.75;1.30;;;;;;;10.23;65.99;96608.25;2064844;28;20209;-61
2022/01/03 00:02:24;;;;;;;2.45;1.02;;;;;;;10.34;65.33;96625.88;2064013;28;20770;-60
2022/01/03 00:03:26;;;;;;;3.35;1.10;;;;;;;10.32;65.41;96618.13;2064806;28;20215;-60
2022/01/03 00:04:28;;;;;;;7.47;1.13;;;;;;;10.32;65.62;96614.69;2064738;28;20217;-60
2022/01/03 00:05:30;;;;;;;8.75;1.60;;;;;;;10.36;65.30;96616.97;2064239;28;20198;-61
2022/01/03 00:06:32;;;;;;;5.90;1.35;;;;;;;10.38;65.26;96609.03;2064742;28;20198;-60
2022/01/03 00:07:42;;;;;;;2.67;1.25;;;;;;;10.30;65.78;96617.41;2063610;28;20226;-61
2022/01/03 00:08:44;;;;;;;6.53;1.52;;;;;;;10.22;66.02;96603.97;2064577;28;20199;-60
2022/01/03 00:09:46;;;;;;;4.53;1.10;;;;;;;10.25;65.70;96604.59;2063355;28;20202;-60
2022/01/03 00:10:47;;;;;;;4.18;1.15;;;;;;;10.21;66.02;96600.50;2064751;28;20210;-61
2022/01/03 00:11:49;;;;;;;5.63;1.35;;;;;;;10.27;65.57;96588.75;2064295;28;20676;-61
2022/01/03 00:12:51;;;;;;;9.70;1.30;;;;;;;10.31;65.11;96590.28;2064770;28;20191;-60
2022/01/03 00:13:52;;;;;;;3.25;1.15;;;;;;;10.38;64.23;96583.69;2064689;28;20658;-61
2022/01/03 00:14:54;;;;;;;3.97;1.33;;;;;;;10.40;63.90;96581.78;2064675;28;20201;-60
2022/01/03 00:15:56;;;;;;;5.68;1.65;;;;;;;10.39;64.45;96589.75;2064098;28;20318;-61
2022/01/03 00:16:57;;;;;;;6.90;1.27;;;;;;;10.33;64.46;96587.53;2064144;28;20209;-61
2022/01/03 00:17:59;;;;;;;7.20;1.30;;;;;;;10.21;65.31;96590.03;2064659;28;20229;-61
2022/01/03 00:19:01;;;;;;;8.70;1.58;;;;;;;9.88;65.32;96548.66;2064646;28;20190;-61
2022/01/03 00:20:04;;;;;;;13.00;1.48;;;;;;;10.14;65.03;96577.47;2061689;28;20198;-60
2022/01/03 00:21:15;;;;;;;9.35;1.35;;;;;;;10.24;64.64;96576.72;2064640;28;20697;-60
2022/01/03 00:22:21;;;;;;;3.08;1.35;;;;;;;10.27;64.31;96589.63;2063667;28;20226;-61
2022/01/03 00:23:26;;;;;;;5.45;1.20;;;;;;;10.27;64.51;96586.16;2064457;28;20233;-61
2022/01/03 00:24:32;;;;;;;8.48;2.47;;;;;;;10.21;65.09;96584.81;2064445;28;20205;-60
2022/01/03 00:25:41;;;;;;;6.63;1.35;;;;;;;10.18;64.92;96586.78;2063836;28;20198;-61
2022/01/03 00:26:49;;;;;;;1.42;0.90;;;;;;;10.16;65.28;96580.81;2064309;28;20198;-61
2022/01/03 00:28:04;;;;;;;3.38;1.23;;;;;;;10.12;65.21;96601.13;2064345;28;20237;-61
2022/01/03 00:29:15;;;;;;;3.95;1.35;;;;;;;10.29;63.34;96579.06;2062389;28;20205;-61
2022/01/03 00:30:21;;;;;;;7.00;0.93;;;;;;;10.13;63.14;96539.16;2064412;28;20225;-62
2022/01/03 00:31:32;;;;;;;4.60;1.08;;;;;;;10.08;63.37;96542.91;2064587;28;20317;-62
2022/01/03 00:32:37;;;;;;;4.90;1.67;;;;;;;10.22;63.73;96583.03;2063457;28;20609;-62
2022/01/03 00:33:40;;;;;;;4.68;1.35;;;;;;;10.24;63.57;96574.13;2064550;28;20248;-62
2022/01/03 00:34:41;;;;;;;5.50;1.58;;;;;;;10.22;63.58;96591.69;2064419;28;20213;-62
2022/01/03 00:35:43;;;;;;;5.78;1.20;;;;;;;10.16;63.57;96581.66;2064524;28;20221;-62
2022/01/03 00:36:49;;;;;;;3.45;1.40;;;;;;;10.13;63.70;96592.31;2063139;28;20206;-61
2022/01/03 00:37:50;;;;;;;6.45;1.35;;;;;;;10.18;63.30;96592.03;2064312;28;20226;-60
2022/01/03 00:38:54;;;;;;;4.00;1.10;;;;;;;10.09;63.23;96576.00;2064281;28;20201;-60
2022/01/03 00:39:57;;;;;;;7.38;1.25;;;;;;;10.24;62.81;96589.81;2062693;28;20542;-60
2022/01/03 00:41:00;;;;;;;5.28;1.33;;;;;;;10.00;63.54;96568.75;2064115;28;20198;-60
2022/01/03 00:42:03;;;;;;;8.30;1.58;;;;;;;10.12;63.42;96608.13;2063544;28;20202;-61
2022/01/03 00:43:05;;;;;;;1.98;0.95;;;;;;;10.20;62.66;96574.44;2064119;28;20420;-60
2022/01/03 00:44:08;;;;;;;4.82;1.23;;;;;;;10.25;62.44;96585.41;2064244;28;20194;-60
2022/01/03 00:45:10;;;;;;;9.32;1.88;;;;;;;10.24;62.24;96586.38;2064499;28;20191;-60
2022/01/03 00:46:12;;;;;;;3.30;1.40;;;;;;;10.12;62.99;96592.44;2064348;28;20213;-60
2022/01/03 00:47:15;;;;;;;10.50;1.70;;;;;;;10.09;63.30;96596.94;2063991;28;20226;-60
2022/01/03 00:48:16;;;;;;;5.88;1.10;;;;;;;10.10;63.14;96603.84;2064434;28;20198;-60
2022/01/03 00:49:19;;;;;;;2.30;0.80;;;;;;;10.16;63.18;96601.75;2064213;28;20253;-60
2022/01/03 00:50:22;;;;;;;3.85;1.38;;;;;;;10.01;63.78;96593.97;2064425;28;20205;-60
2022/01/03 00:51:24;;;;;;;6.05;1.20;;;;;;;10.07;63.65;96603.19;2063985;28;20225;-60
2022/01/03 00:52:25;;;;;;;6.18;1.02;;;;;;;10.01;63.71;96593.13;2063027;28;20225;-60
2022/01/03 00:53:27;;;;;;;4.93;1.10;;;;;;;10.05;63.99;96603.28;2064406;28;20203;-61
2022/01/03 00:54:28;;;;;;;6.70;1.23;;;;;;;10.07;64.11;96601.44;2064443;28;20198;-60
2022/01/03 00:55:31;;;;;;;6.25;1.10;;;;;;;10.17;63.24;96585.09;2062781;28;20198;-60
2022/01/03 00:56:44;;;;;;;7.65;1.35;;;;;;;10.02;63.30;96566.88;2064277;28;20222;-60
2022/01/03 00:58:08;;;;;;;9.27;1.33;;;;;;;10.12;63.82;96595.06;2064010;28;20805;-60
2022/01/03 00:59:11;;;;;;;6.18;1.10;;;;;;;10.08;63.42;96591.81;2063294;28;20775;-60
2022/01/03 01:00:13;;;;;;;4.75;1.27;;;;;;;10.08;63.94;96590.00;2064440;28;20213;-60
2022/01/03 01:01:18;;;;;;;4.75;1.13;;;;;;;10.19;63.07;96577.97;2064391;28;20707;-60
2022/01/03 01:02:21;;;;;;;10.68;1.25;;;;;;;10.20;63.62;96584.91;2062306;28;20229;-60
2022/01/03 01:03:32;;;;;;;5.53;1.10;;;;;;;10.10;64.00;96590.75;2064407;28;20202;-60
2022/01/03 01:04:34;;;;;;;3.90;1.30;;;;;;;9.94;64.45;96587.50;2063389;28;20200;-60
2022/01/03 01:05:39;;;;;;;7.75;1.95;;;;;;;10.04;64.55;96612.09;2064105;28;20213;-60
2022/01/03 01:06:41;;;;;;;7.18;1.20;;;;;;;10.02;64.28;96600.91;2063418;28;20191;-60
2022/01/03 01:07:44;;;;;;;9.85;1.35;;;;;;;10.03;64.57;96597.31;2063740;28;20225;-60
2022/01/03 01:08:47;;;;;;;12.75;1.48;;;;;;;10.03;64.42;96593.88;2064319;28;20834;-60
2022/01/03 01:09:52;;;;;;;3.78;1.20;;;;;;;9.96;64.75;96605.69;2063272;28;20205;-60
2022/01/03 01:10:55;;;;;;;7.90;1.60;;;;;;;9.97;64.96;96608.19;2064344;28;20199;-60
2022/01/03 01:12:00;;;;;;;7.75;1.40;;;;;;;9.98;64.58;96593.38;2063229;28;20225;-60
2022/01/03 01:13:03;;;;;;;5.57;1.50;;;;;;;10.00;64.40;96594.94;2064121;28;20297;-60
2022/01/03 01:14:07;;;;;;;3.00;0.88;;;;;;;10.10;63.75;96577.66;2064249;28;20661;-61
2022/01/03 01:15:09;;;;;;;5.32;1.70;;;;;;;10.05;64.09;96595.44;2064006;28;20198;-61
2022/01/03 01:16:11;;;;;;;14.65;1.23;;;;;;;9.99;64.50;96588.00;2064016;28;20198;-61
2022/01/03 01:17:13;;;;;;;7.25;1.20;;;;;;;9.96;64.86;96595.22;2063881;28;20229;-61
2022/01/03 01:18:15;;;;;;;4.00;1.20;;;;;;;10.03;64.26;96599.94;2064237;28;20202;-61
2022/01/03 01:19:21;;;;;;;3.25;1.25;;;;;;;10.09;64.22;96594.31;2064324;28;20202;-61
2022/01/03 01:20:24;;;;;;;4.80;1.40;;;;;;;10.00;64.57;96581.03;2064188;28;20198;-61
2022/01/03 01:21:26;;;;;;;5.22;1.33;;;;;;;9.81;64.57;96565.69;2064196;28;20198;-61
2022/01/03 01:22:29;;;;;;;2.85;0.90;;;;;;;9.90;65.08;96597.31;2063573;28;20218;-61
2022/01/03 01:23:31;;;;;;;6.75;1.60;;;;;;;9.96;64.79;96603.91;2064242;28;20681;-61
2022/01/03 01:24:45;;;;;;;7.28;1.45;;;;;;;9.94;65.07;96604.94;2064235;28;20202;-60
2022/01/03 01:28:12;;;;;;;6.07;1.35;;;;;;;9.88;65.65;96619.28;2064105;28;20387;-61
2022/01/03 01:29:13;;;;;;;4.88;1.15;;;;;;;9.79;65.98;96604.19;2061003;28;20206;-61
2022/01/03 01:30:20;;;;;;;9.80;1.30;;;;;;;9.83;65.92;96630.03;2064232;28;20629;-61
2022/01/03 01:31:24;;;;;;;4.32;1.27;;;;;;;10.01;64.72;96611.44;2064259;28;20199;-61
2022/01/03 01:32:27;;;;;;;7.10;1.30;;;;;;;9.84;64.88;96597.72;2063233;28;20253;-61
2022/01/03 01:33:34;;;;;;;4.80;1.30;;;;;;;10.05;65.06;96639.09;2064072;28;20278;-61
2022/01/03 01:34:49;;;;;;;5.10;1.48;;;;;;;9.97;65.25;96608.19;2063534;28;20552;-60
2022/01/03 01:36:00;;;;;;;8.98;1.20;;;;;;;9.99;65.55;96632.47;2063558;28;20202;-61
2022/01/03 01:37:01;;;;;;;6.65;1.63;;;;;;;9.94;65.89;96634.56;2063374;28;20688;-61
2022/01/03 01:38:05;;;;;;;7.45;1.45;;;;;;;9.92;66.01;96631.22;2063914;28;20206;-61
2022/01/03 01:39:09;;;;;;;7.63;1.40;;;;;;;9.99;65.70;96632.47;2063786;28;20202;-60
2022/01/03 01:40:10;;;;;;;5.00;1.30;;;;;;;10.08;65.22;96631.88;2061279;28;20211;-61
2022/01/03 01:41:13;;;;;;;6.20;1.30;;;;;;;9.96;66.06;96637.94;2063943;28;20202;-61
2022/01/03 01:42:19;;;;;;;6.75;1.67;;;;;;;9.96;66.27;96635.31;2063582;28;20237;-61
2022/01/03 01:43:25;;;;;;;3.65;1.40;;;;;;;10.00;65.67;96623.72;2063983;28;20206;-61
2022/01/03 01:44:31;;;;;;;2.65;1.02;;;;;;;9.94;66.14;96629.34;2063037;28;20194;-61
2022/01/03 01:45:33;;;;;;;8.32;1.90;;;;;;;9.93;66.18;96635.50;2063302;28;20202;-61
2022/01/03 01:46:43;;;;;;;7.65;1.70;;;;;;;9.98;65.77;96640.44;2064173;28;20252;-61
2022/01/03 01:47:47;;;;;;;9.48;1.73;;;;;;;10.01;65.62;96629.78;2063325;28;20222;-61
2022/01/03 01:48:50;;;;;;;4.20;1.15;;;;;;;10.02;65.33;96642.75;2064130;28;20573;-61
2022/01/03 01:49:54;;;;;;;4.32;1.20;;;;;;;9.93;65.88;96635.50;2064074;28;20195;-61
2022/01/03 01:50:59;;;;;;;7.15;1.63;;;;;;;9.95;65.68;96627.56;2064064;28;20199;-60
2022/01/03 01:52:03;;;;;;;6.72;1.60;;;;;;;9.98;65.42;96641.28;2063702;28;20621;-61
2022/01/03 01:53:06;;;;;;;10.02;1.48;;;;;;;9.86;65.10;96602.88;2064657;28;20214;-60
2022/01/03 01:54:14;;;;;;;7.90;1.35;;;;;;;9.99;64.86;96642.94;2064812;28;20223;-61
2022/01/03 01:55:16;;;;;;;6.22;1.20;;;;;;;10.07;64.68;96643.31;2065581;28;20206;-61
2022/01/03 01:56:27;;;;;;;3.28;1.30;;;;;;;10.04;64.77;96640.88;2064919;28;20209;-61
2022/01/03 01:57:58;;;;;;;2.47;1.25;;;;;;;9.92;65.03;96625.13;2064549;28;20230;-61
2022/01/03 01:59:02;;;;;;;11.55;1.20;;;;;;;9.96;65.41;96643.16;2065321;28;20209;-61
2022/01/03 02:00:16;;;;;;;7.00;1.10;;;;;;;9.69;65.95;96610.00;2065752;28;20210;-61
2022/01/03 02:01:20;;;;;;;7.32;1.33;;;;;;;9.86;66.44;96645.53;2059878;28;20260;-61
2022/01/03 02:02:37;;;;;;;8.50;1.42;;;;;;;9.80;66.57;96664.25;2059515;28;20226;-61
2022/01/03 02:03:48;;;;;;;6.10;1.50;;;;;;;9.72;66.68;96653.41;2064940;28;20549;-61
2022/01/03 02:05:08;;;;;;;2.47;1.15;;;;;;;9.77;66.65;96658.38;2064766;28;20205;-61
2022/01/03 02:06:22;;;;;;;12.18;2.03;;;;;;;9.70;66.98;96647.44;2064479;28;20565;-61
2022/01/03 02:07:47;;;;;;;6.28;1.52;;;;;;;9.75;66.89;96655.03;2064494;28;20221;-61
2022/01/03 02:09:07;;;;;;;4.22;2.00;;;;;;;9.80;66.71;96650.31;2064187;28;20213;-61
2022/01/03 02:10:14;;;;;;;5.72;1.30;;;;;;;9.68;67.29;96660.66;2063744;28;20209;-61
2022/01/03 02:11:24;;;;;;;2.90;1.15;;;;;;;9.73;67.22;96656.91;2065581;28;20580;-61
2022/01/03 02:12:27;;;;;;;5.72;1.20;;;;;;;9.52;67.69;96617.28;2064417;28;20237;-61
2022/01/03 02:13:30;;;;;;;5.30;1.20;;;;;;;9.64;67.67;96640.88;2065297;28;20202;-61
2022/01/03 02:14:36;;;;;;;6.32;1.67;;;;;;;9.64;67.84;96643.47;2064415;28;20314;-61
2022/01/03 02:15:39;;;;;;;12.00;1.02;;;;;;;9.66;67.87;96648.59;2064155;28;20209;-62
2022/01/03 02:16:41;;;;;;;10.93;1.52;;;;;;;9.57;68.01;96636.97;2065365;28;20260;-61
2022/01/03 02:17:48;;;;;;;4.22;1.00;;;;;;;9.67;67.97;96648.50;2065146;28;20266;-61
2022/01/03 02:18:49;;;;;;;3.95;1.20;;;;;;;9.60;68.17;96647.19;2064801;28;20661;-61
2022/01/03 02:20:08;;;;;;;6.63;1.40;;;;;;;9.67;67.64;96655.50;2064775;28;20205;-61
2022/01/03 02:21:10;;;;;;;4.57;1.05;;;;;;;9.69;67.57;96649.25;2064815;28;20206;-61
2022/01/03 02:22:13;;;;;;;10.45;1.73;;;;;;;9.66;67.71;96640.75;2064962;28;20222;-61
2022/01/03 02:23:14;;;;;;;8.00;1.40;;;;;;;9.64;68.20;96648.72;2065317;28;20549;-61
2022/01/03 02:24:16;;;;;;;6.07;1.88;;;;;;;9.58;67.78;96646.47;2065339;28;20206;-61
2022/01/03 02:25:19;;;;;;;6.72;1.25;;;;;;;9.60;68.28;96662.91;2065384;28;20202;-61
2022/01/03 02:26:21;;;;;;;3.13;1.00;;;;;;;9.59;68.39;96666.47;2065313;28;20226;-61
2022/01/03 02:27:23;;;;;;;3.15;1.15;;;;;;;9.35;68.38;96616.59;2065029;28;20562;-61
2022/01/03 02:28:25;;;;;;;3.65;1.10;;;;;;;9.55;68.39;96643.22;2065053;28;20206;-61
2022/01/03 02:29:26;;;;;;;3.55;1.15;;;;;;;9.55;68.22;96653.69;2065415;28;20199;-61
2022/01/03 02:30:30;;;;;;;4.80;1.10;;;;;;;9.55;68.21;96662.38;2064732;28;20195;-61
2022/01/03 02:31:33;;;;;;;4.85;1.23;;;;;;;9.57;67.64;96649.19;2064587;28;20541;-61
2022/01/03 02:32:34;;;;;;;6.43;1.50;;;;;;;9.55;67.64;96640.63;2064262;28;20269;-61
2022/01/03 02:33:36;;;;;;;3.63;1.00;;;;;;;9.56;67.39;96653.56;2065316;28;20198;-61
2022/01/03 02:34:38;;;;;;;14.15;1.55;;;;;;;9.58;67.36;96646.47;2065447;28;20630;-61
2022/01/03 02:35:41;;;;;;;7.03;1.05;;;;;;;9.52;67.68;96651.25;2065334;28;20231;-60
2022/01/03 02:36:44;;;;;;;4.13;1.25;;;;;;;9.52;67.36;96653.88;2065479;28;20205;-61
2022/01/03 02:37:47;;;;;;;9.73;1.55;;;;;;;9.56;67.56;96650.13;2064740;28;20230;-61
2022/01/03 02:38:49;;;;;;;5.05;1.27;;;;;;;9.59;67.30;96650.78;2065312;28;20190;-61
2022/01/03 02:39:52;;;;;;;10.10;1.10;;;;;;;9.54;67.35;96652.84;2065346;28;20289;-61
2022/01/03 02:40:54;;;;;;;9.27;1.70;;;;;;;9.53;67.35;96653.78;2065288;28;20209;-61
2022/01/03 02:41:55;;;;;;;6.57;1.00;;;;;;;9.48;66.48;96619.25;2063915;28;20202;-61
2022/01/03 02:42:57;;;;;;;4.30;1.60;;;;;;;9.57;66.34;96636.13;2065259;28;20202;-61
2022/01/03 02:43:59;;;;;;;6.82;1.30;;;;;;;9.60;66.42;96641.97;2065357;28;20198;-61
2022/01/03 02:45:19;;;;;;;9.70;1.40;;;;;;;9.60;66.54;96649.81;2063381;28;20202;-61
2022/01/03 02:46:21;;;;;;;17.30;1.52;;;;;;;9.57;66.08;96636.97;2065126;28;20213;-61
2022/01/03 02:47:22;;;;;;;8.07;1.23;;;;;;;9.59;66.03;96647.31;2064799;28;20226;-61
2022/01/03 02:48:25;;;;;;;13.55;1.30;;;;;;;9.67;65.79;96648.50;2062903;28;20718;-61
2022/01/03 02:49:26;;;;;;;5.22;1.50;;;;;;;9.61;65.72;96632.38;2065262;28;20202;-61
2022/01/03 02:50:30;;;;;;;4.85;1.45;;;;;;;9.63;65.51;96647.03;2065228;28;20634;-61
2022/01/03 02:51:32;;;;;;;6.25;1.27;;;;;;;9.55;65.85;96638.84;2065098;28;20190;-60
2022/01/03 02:52:34;;;;;;;10.98;1.48;;;;;;;9.59;65.97;96652.56;2064662;28;20225;-61
2022/01/03 02:53:37;;;;;;;8.82;1.75;;;;;;;9.52;65.70;96644.25;2063227;28;20649;-61
2022/01/03 02:54:38;;;;;;;5.13;1.25;;;;;;;9.62;65.71;96665.41;2065191;28;20488;-61
2022/01/03 02:55:40;;;;;;;10.15;1.60;;;;;;;9.63;65.74;96657.47;2065081;28;20206;-61
2022/01/03 02:56:42;;;;;;;7.75;1.00;;;;;;;9.62;65.73;96644.50;2065138;28;20541;-61
2022/01/03 02:57:52;;;;;;;6.20;1.10;;;;;;;9.73;65.43;96649.06;2064563;28;20233;-61
2022/01/03 02:58:53;;;;;;;6.93;1.50;;;;;;;9.63;66.04;96652.25;2064998;28;20241;-61
2022/01/03 02:59:57;;;;;;;10.65;1.27;;;;;;;9.60;66.49;96656.84;2065144;28;20214;-61
2022/01/03 03:00:59;;;;;;;8.65;1.50;;;;;;;9.61;66.33;96655.91;2064363;28;20198;-61
2022/01/03 03:02:01;;;;;;;9.18;1.40;;;;;;;9.49;66.88;96654.91;2064647;28;20205;-62
2022/01/03 03:03:03;;;;;;;8.02;1.50;;;;;;;9.50;66.89;96661.81;2064906;28;20709;-61
2022/01/03 03:04:05;;;;;;;3.40;1.35;;;;;;;9.57;66.53;96672.72;2064772;28;20257;-61
2022/01/03 03:05:09;;;;;;;7.88;1.70;;;;;;;9.42;66.29;96632.69;2064406;28;20198;-61
2022/01/03 03:06:10;;;;;;;10.55;1.80;;;;;;;9.51;66.66;96663.50;2064924;28;20241;-61
2022/01/03 03:07:19;;;;;;;5.03;1.30;;;;;;;9.47;66.90;96668.06;2064542;28;20300;-61
2022/01/03 03:08:21;;;;;;;9.05;1.77;;;;;;;9.49;66.67;96666.19;2062422;28;20205;-61
2022/01/03 03:09:22;;;;;;;5.28;1.35;;;;;;;9.55;66.18;96664.97;2065047;28;20195;-61
2022/01/03 03:10:25;;;;;;;10.07;1.75;;;;;;;9.57;66.16;96651.81;2064974;28;20209;-61
2022/01/03 03:11:27;;;;;;;3.80;1.30;;;;;;;9.49;66.29;96660.16;2064405;28;20199;-61
2022/01/03 03:12:29;;;;;;;4.65;1.10;;;;;;;9.48;66.58;96663.69;2061934;28;20226;-61
2022/01/03 03:13:31;;;;;;;7.15;1.88;;;;;;;9.50;66.42;96667.03;2065077;28;20210;-61
2022/01/03 03:14:32;;;;;;;6.78;1.52;;;;;;;9.54;66.16;96658.06;2064977;28;20588;-60
2022/01/03 03:15:34;;;;;;;4.13;1.10;;;;;;;9.52;66.31;96659.09;2064815;28;20321;-61
2022/01/03 03:16:36;;;;;;;10.73;2.15;;;;;;;9.33;66.37;96630.66;2064907;28;20225;-61
2022/01/03 03:17:39;;;;;;;10.23;1.35;;;;;;;9.48;66.41;96668.91;2064461;28;20253;-61
2022/01/03 03:18:44;;;;;;;9.02;1.50;;;;;;;9.44;66.46;96665.66;2064747;28;20205;-61
2022/01/03 03:20:00;;;;;;;16.90;3.00;;;;;;;9.43;66.26;96673.59;2064852;28;20190;-61
2022/01/03 03:21:01;;;;;;;11.10;1.30;;;;;;;9.45;66.29;96659.50;2064691;28;20197;-61
2022/01/03 03:22:03;;;;;;;6.03;1.70;;;;;;;9.50;66.05;96657.41;2062730;28;20583;-61
2022/01/03 03:23:04;;;;;;;12.02;1.60;;;;;;;9.42;66.38;96667.53;2064843;28;20253;-61
2022/01/03 03:24:06;;;;;;;13.48;1.50;;;;;;;9.33;67.18;96670.72;2064818;28;20202;-60
2022/01/03 03:25:14;;;;;;;9.98;1.70;;;;;;;9.34;66.91;96672.38;2064953;28;20210;-61
2022/01/03 03:26:15;;;;;;;14.80;1.50;;;;;;;9.36;66.71;96665.28;2064742;28;20206;-61
2022/01/03 03:27:18;;;;;;;7.95;1.50;;;;;;;9.44;66.45;96688.34;2064435;28;20231;-61
2022/01/03 03:28:39;;;;;;;6.60;1.17;;;;;;;9.39;66.52;96674.72;2064394;28;20233;-61
2022/01/03 03:29:49;;;;;;;6.35;1.92;;;;;;;9.41;66.58;96678.06;2064411;28;20195;-60
2022/01/03 03:30:51;;;;;;;11.27;1.80;;;;;;;9.39;66.66;96677.31;2064362;28;20207;-61
2022/01/03 03:31:53;;;;;;;7.60;1.20;;;;;;;9.43;66.12;96666.59;2063810;28;20198;-61
2022/01/03 03:33:03;;;;;;;4.55;1.50;;;;;;;9.46;66.13;96663.78;2064520;28;20198;-60
2022/01/03 03:34:05;;;;;;;3.80;1.05;;;;;;;9.45;66.42;96682.19;2064289;28;20206;-60
2022/01/03 03:35:07;;;;;;;5.82;1.25;;;;;;;9.39;66.58;96677.31;2064372;28;20213;-60
2022/01/03 03:36:09;;;;;;;14.82;2.10;;;;;;;9.35;67.04;96678.44;2064506;28;20201;-61
2022/01/03 03:37:10;;;;;;;6.07;1.50;;;;;;;9.33;66.92;96681.19;2064047;28;20310;-61
2022/01/03 03:38:12;;;;;;;11.57;1.67;;;;;;;9.30;67.07;96676.13;2064170;28;20214;-60
2022/01/03 03:39:13;;;;;;;3.05;1.20;;;;;;;9.36;66.31;96683.59;2062539;28;20265;-60
2022/01/03 03:40:15;;;;;;;5.28;1.90;;;;;;;9.27;66.39;96656.28;2064773;28;20225;-61
2022/01/03 03:41:17;;;;;;;12.93;1.88;;;;;;;9.09;66.40;96642.59;2064762;28;20202;-61
2022/01/03 03:42:19;;;;;;;8.23;1.85;;;;;;;9.14;66.58;96657.13;2064021;28;20230;-61
2022/01/03 03:43:21;;;;;;;12.00;1.30;;;;;;;9.34;65.88;96675.00;2064617;28;20203;-60
2022/01/03 03:44:22;;;;;;;8.60;1.70;;;;;;;9.28;66.34;96675.41;2064547;28;20202;-61
2022/01/03 03:45:24;;;;;;;9.10;1.45;;;;;;;9.28;66.21;96678.84;2064721;28;20206;-61
2022/01/03 03:46:25;;;;;;;6.60;1.45;;;;;;;9.25;66.29;96667.72;2064515;28;20555;-60
2022/01/03 03:47:27;;;;;;;6.43;1.60;;;;;;;9.22;67.00;96663.53;2064051;28;20265;-61
2022/01/03 03:48:28;;;;;;;7.88;1.42;;;;;;;9.15;66.95;96662.25;2064360;28;20194;-61
2022/01/03 03:49:31;;;;;;;6.93;1.40;;;;;;;9.15;67.09;96667.47;2064588;28;20205;-60
2022/01/03 03:50:33;;;;;;;5.55;1.33;;;;;;;9.30;66.35;96663.06;2064470;28;20734;-61
2022/01/03 03:51:38;;;;;;;10.70;1.45;;;;;;;9.22;66.71;96655.72;2064636;28;20217;-60
2022/01/03 03:52:39;;;;;;;5.38;1.50;;;;;;;9.15;67.27;96670.06;2063512;28;20724;-61
2022/01/03 03:53:41;;;;;;;12.57;1.30;;;;;;;9.20;67.03;96673.25;2064569;28;20201;-60
2022/01/03 03:54:42;;;;;;;9.13;1.85;;;;;;;9.11;67.38;96660.75;2064737;28;20195;-61
2022/01/03 03:55:44;;;;;;;11.50;3.13;;;;;;;9.03;66.90;96648.16;2064586;28;20206;-60
2022/01/03 03:56:46;;;;;;;6.00;1.77;;;;;;;9.16;67.02;96669.16;2064645;28;20202;-60
2022/01/03 03:57:47;;;;;;;10.02;1.70;;;;;;;9.13;67.39;96671.94;2064211;28;20676;-60
2022/01/03 03:58:49;;;;;;;12.73;1.80;;;;;;;9.12;67.71;96688.56;2064463;28;20238;-61
2022/01/03 03:59:50;;;;;;;9.10;2.08;;;;;;;9.07;68.56;96680.16;2064502;28;20212;-61
2022/01/03 04:00:52;;;;;;;5.22;1.25;;;;;;;9.05;69.66;96682.03;2064601;28;20213;-61
2022/01/03 04:02:10;;;;;;;10.82;1.75;;;;;;;8.88;72.00;96681.31;2063560;28;20690;-60
2022/01/03 04:03:12;;;;;;;10.93;1.42;;;;;;;8.73;74.30;96665.72;2064206;28;20205;-60
2022/01/03 04:04:14;;;;;;;6.68;1.20;;;;;;;8.56;76.17;96669.34;2064593;28;20198;-60
2022/01/03 04:05:15;;;;;;;10.32;1.45;;;;;;;8.36;75.83;96663.50;2064524;28;20195;-60
2022/01/03 04:06:17;;;;;;;12.23;1.73;;;;;;;8.40;75.32;96675.41;2064602;28;20549;-61
2022/01/03 04:07:19;;;;;;;6.90;1.38;;;;;;;8.30;76.90;96664.69;2064187;28;20221;-61
2022/01/03 04:08:20;;;;;;;6.68;1.38;;;;;;;8.18;77.65;96651.53;2064705;28;20220;-61
2022/01/03 04:09:22;;;;;;;9.20;2.10;;;;;;;8.17;78.35;96660.28;2064390;28;20198;-60
2022/01/03 04:10:24;;;;;;;12.35;1.50;;;;;;;8.00;79.33;96643.00;2064508;28;20201;-61
2022/01/03 04:11:25;;;;;;;10.32;2.13;;;;;;;8.11;78.26;96664.94;2064686;28;20194;-60
2022/01/03 04:12:27;;;;;;;5.78;1.02;;;;;;;8.11;78.35;96670.16;2064176;28;20222;-61
2022/01/03 04:13:28;;;;;;;8.00;1.80;;;;;;;8.14;78.75;96670.91;2063989;28;20198;-61
2022/01/03 04:14:30;;;;;;;11.27;2.13;;;;;;;8.11;78.97;96664.06;2064542;28;20199;-60
2022/01/03 04:15:32;;;;;;;7.63;1.63;;;;;;;8.05;79.28;96662.66;2062880;28;20638;-61
2022/01/03 04:16:34;;;;;;;4.03;1.55;;;;;;;8.06;79.32;96656.53;2064389;28;20699;-60
2022/01/03 04:17:37;;;;;;;12.57;1.50;;;;;;;8.09;79.15;96661.53;2064060;28;20218;-61
2022/01/03 04:18:38;;;;;;;5.05;1.10;;;;;;;8.10;79.75;96665.84;2064377;28;20214;-60
2022/01/03 04:19:39;;;;;;;7.72;1.60;;;;;;;8.07;80.17;96668.63;2064572;28;20554;-61
2022/01/03 04:20:41;;;;;;;12.43;2.25;;;;;;;8.12;79.37;96660.56;2064213;28;20205;-60
2022/01/03 04:21:42;;;;;;;10.93;1.92;;;;;;;8.14;80.21;96669.13;2064394;28;20202;-61
2022/01/03 04:22:44;;;;;;;7.15;1.98;;;;;;;8.08;81.26;96677.31;2064045;28;20846;-61
2022/01/03 04:23:45;;;;;;;7.90;1.65;;;;;;;8.01;81.67;96676.81;2064571;28;20194;-61
2022/01/03 04:24:47;;;;;;;6.10;1.20;;;;;;;7.87;83.16;96666.31;2064280;28;20205;-61
2022/01/03 04:25:50;;;;;;;10.93;1.50;;;;;;;7.60;83.10;96635.66;2063469;28;20197;-61
2022/01/03 04:26:52;;;;;;;30.92;2.47;;;;;;;7.59;82.50;96626.19;2064011;28;20202;-61
2022/01/03 04:27:53;;;;;;;17.73;2.10;;;;;;;7.84;83.71;96666.50;2064566;28;20199;-61
2022/01/03 04:28:55;;;;;;;7.95;1.65;;;;;;;7.78;83.69;96669.44;2064565;28;20201;-61
2022/01/03 04:29:56;;;;;;;8.05;1.80;;;;;;;7.77;83.34;96665.19;2064306;28;20203;-61
2022/01/03 04:30:58;;;;;;;7.32;1.52;;;;;;;7.77;84.43;96662.56;2063201;28;20207;-61
2022/01/03 04:31:59;;;;;;;14.00;1.70;;;;;;;7.66;85.21;96663.16;2064021;28;20201;-61
2022/01/03 04:33:01;;;;;;;11.52;2.00;;;;;;;7.59;86.13;96662.66;2064461;28;20265;-60
2022/01/03 04:34:03;;;;;;;11.52;1.60;;;;;;;7.52;86.30;96656.94;2064238;28;20221;-61
2022/01/03 04:35:05;;;;;;;17.33;2.20;;;;;;;7.60;86.71;96666.09;2064488;28;20201;-60
2022/01/03 04:36:08;;;;;;;6.00;1.48;;;;;;;7.52;87.33;96671.75;2064416;28;20645;-60
2022/01/03 04:37:10;;;;;;;12.60;1.63;;;;;;;7.50;87.92;96682.25;2063885;28;20222;-60
2022/01/03 04:38:11;;;;;;;13.93;2.50;;;;;;;7.44;88.04;96679.16;2063818;28;20203;-60
2022/01/03 04:39:13;;;;;;;11.48;1.52;;;;;;;7.44;89.09;96689.56;2063379;28;20209;-60
2022/01/03 04:40:14;;;;;;;4.78;1.35;;;;;;;7.45;89.55;96697.31;2063795;28;20209;-60
2022/01/03 04:41:16;;;;;;;8.52;1.50;;;;;;;7.38;90.29;96698.56;2063823;28;20345;-60
2022/01/03 04:42:18;;;;;;;11.57;1.45;;;;;;;7.36;90.71;96696.97;2063824;28;20226;-60
2022/01/03 04:43:19;;;;;;;10.27;1.60;;;;;;;7.21;92.01;96677.78;2063756;28;20201;-60
2022/01/03 04:44:21;;;;;;;11.50;1.40;;;;;;;7.28;92.56;96686.97;2064415;28;20217;-60
2022/01/03 04:45:22;;;;;;;8.48;1.55;;;;;;;7.10;92.70;96671.41;2064344;28;20889;-60
2022/01/03 04:46:24;;;;;;;5.05;1.35;;;;;;;7.17;93.69;96692.75;2064268;28;20194;-60
2022/01/03 04:47:25;;;;;;;9.55;1.33;;;;;;;7.09;94.51;96694.91;2063884;28;20834;-60
2022/01/03 04:48:27;;;;;;;8.38;2.60;;;;;;;7.09;94.83;96685.34;2064455;28;20644;-60
2022/01/03 04:49:28;;;;;;;16.73;1.58;;;;;;;7.05;95.12;96683.81;2064313;28;20209;-60
2022/01/03 04:50:30;;;;;;;14.57;2.40;;;;;;;7.00;95.15;96692.78;2064393;28;20203;-60
2022/01/03 04:51:32;;;;;;;14.93;1.73;;;;;;;6.98;95.36;96681.63;2062099;28;20213;-60
2022/01/03 04:52:33;;;;;;;10.98;1.50;;;;;;;6.57;96.13;96623.03;2063653;28;20567;-60
2022/01/03 04:53:39;;;;;;;11.13;2.03;;;;;;;7.00;96.23;96692.78;2064396;28;20194;-60
2022/01/03 04:54:41;;;;;;;11.80;2.05;;;;;;;6.87;95.93;96659.59;2063795;28;20199;-60
2022/01/03 04:55:42;;;;;;;9.88;1.77;;;;;;;7.04;95.71;96681.31;2064366;28;20222;-61
2022/01/03 04:56:44;;;;;;;9.48;1.80;;;;;;;7.06;95.93;96684.69;2064114;28;20190;-61
2022/01/03 04:57:45;;;;;;;11.02;1.85;;;;;;;7.11;96.23;96695.69;2063839;28;20226;-60
2022/01/03 04:58:47;;;;;;;5.00;1.73;;;;;;;7.00;96.64;96692.78;2064232;28;20215;-61
2022/01/03 04:59:48;;;;;;;15.98;2.40;;;;;;;6.95;96.90;96702.63;2064390;28;20198;-61
2022/01/03 05:00:50;;;;;;;8.73;1.70;;;;;;;6.88;97.98;96684.72;2064179;28;20202;-61
2022/01/03 05:01:52;;;;;;;25.17;2.22;;;;;;;6.96;96.06;96699.09;2061949;28;20198;-61
2022/01/03 05:02:54;;;;;;;22.38;4.43;;;;;;;6.95;94.88;96680.03;2062050;28;20593;-61
2022/01/03 05:03:55;;;;;;;10.98;1.70;;;;;;;7.08;94.93;96694.09;2064213;28;20691;-61